Time;durP1;ratioP1;P1;durP2;ratioP2;P2;SDS_P1;SDS_P2;PMS_P1;PMS_P2;Temp;Humidity;BMP_temperature;BMP_pressure;BME280_temperature;BME280_humidity;BME280_pressure;Samples;Min_cycle;Max_cycle;Signal;HPM_P1;HPM_P2
2020/12/10 00:02:13;;;;;;;88.25;37.70;;;;;;;-0.74;84.49;100299.34;1727209;82;21195;-74
2020/12/10 00:04:39;;;;;;;79.37;35.73;;;;;;;-0.73;84.49;100304.95;1728662;83;21184;-74
2020/12/10 00:07:06;;;;;;;94.47;41.18;;;;;;;-0.73;84.49;100311.50;1700004;83;21202;-73
2020/12/10 00:09:33;;;;;;;99.42;43.70;;;;;;;-0.74;84.49;100307.20;1727508;81;21223;-73
2020/12/10 00:12:03;;;;;;;91.42;40.48;;;;;;;-0.77;84.50;100298.24;1708882;82;21694;-73
2020/12/10 00:14:30;;;;;;;96.15;40.28;;;;;;;-0.76;84.49;100294.69;1732530;82;21151;-73
2020/12/10 00:16:56;;;;;;;93.95;41.77;;;;;;;-0.75;84.50;100292.45;1733810;82;21624;-73
2020/12/10 00:19:22;;;;;;;98.65;40.75;;;;;;;-0.76;84.50;100297.31;1720234;82;21211;-73
2020/12/10 00:21:49;;;;;;;85.42;36.08;;;;;;;-0.79;84.49;100289.66;1732153;82;21214;-73
2020/12/10 00:24:15;;;;;;;75.30;33.75;;;;;;;-0.81;84.50;100282.86;1730856;82;21573;-73
2020/12/10 00:26:41;;;;;;;78.05;32.88;;;;;;;-0.84;84.49;100281.72;1707860;84;21180;-73
2020/12/10 00:29:08;;;;;;;84.28;37.13;;;;;;;-0.85;84.50;100286.61;1719205;81;21680;-74
2020/12/10 00:31:36;;;;;;;80.20;38.08;;;;;;;-0.89;84.50;100284.66;1736686;82;21247;-74
2020/12/10 00:34:05;;;;;;;92.12;38.25;;;;;;;-0.92;84.50;100280.94;1736956;81;21183;-74
2020/12/10 00:36:31;;;;;;;78.35;35.40;;;;;;;-0.93;84.51;100296.73;1737061;82;21147;-73
2020/12/10 00:38:57;;;;;;;77.30;32.85;;;;;;;-0.94;84.51;100290.66;1735361;82;21212;-73
2020/12/10 00:41:24;;;;;;;75.45;32.30;;;;;;;-0.96;84.52;100282.08;1713070;82;21480;-73
2020/12/10 00:43:50;;;;;;;86.30;39.23;;;;;;;-0.97;84.53;100280.39;1708400;84;22153;-73
2020/12/10 00:46:16;;;;;;;89.75;35.10;;;;;;;-0.98;84.54;100280.02;1708565;84;21750;-73
2020/12/10 00:48:42;;;;;;;91.02;40.58;;;;;;;-0.98;84.55;100280.02;1707958;83;21175;-73
2020/12/10 00:51:09;;;;;;;86.63;36.03;;;;;;;-0.99;84.56;100286.20;1708815;84;21076;-73
2020/12/10 00:53:35;;;;;;;78.28;35.90;;;;;;;-0.99;84.57;100279.66;1708558;82;21128;-73
2020/12/10 00:56:01;;;;;;;89.45;34.27;;;;;;;-0.99;84.56;100278.36;1708669;84;22098;-73
2020/12/10 00:58:27;;;;;;;73.10;35.70;;;;;;;-0.98;84.59;100280.02;1708546;84;21977;-73
2020/12/10 01:00:54;;;;;;;80.55;34.40;;;;;;;-1.00;84.59;100274.05;1708594;84;21659;-73
2020/12/10 01:03:20;;;;;;;85.42;37.50;;;;;;;-1.03;84.60;100274.26;1708746;82;21167;-73
2020/12/10 01:05:46;;;;;;;87.30;37.73;;;;;;;-1.04;84.60;100273.88;1708872;84;21155;-73
2020/12/10 01:08:12;;;;;;;81.65;35.35;;;;;;;-1.05;84.61;100270.88;1708691;84;21163;-73
2020/12/10 01:10:39;;;;;;;84.72;38.80;;;;;;;-1.05;84.61;100266.49;1708466;83;21466;-73
2020/12/10 01:13:05;;;;;;;84.92;35.65;;;;;;;-1.05;84.63;100268.27;1708741;82;21092;-73
2020/12/10 01:15:32;;;;;;;84.95;36.98;;;;;;;-1.02;84.63;100266.75;1708585;84;21143;-73
2020/12/10 01:17:58;;;;;;;94.05;39.60;;;;;;;-1.02;84.63;100262.83;1708919;83;21140;-73
2020/12/10 01:20:24;;;;;;;89.05;39.10;;;;;;;-0.99;84.64;100262.66;1708718;84;21207;-74
2020/12/10 01:22:51;;;;;;;103.22;43.02;;;;;;;-0.98;84.66;100255.62;1708554;84;21227;-74
2020/12/10 01:25:17;;;;;;;95.10;38.10;;;;;;;-0.99;84.64;100246.95;1708915;84;21143;-74
2020/12/10 01:27:43;;;;;;;94.25;40.63;;;;;;;-1.00;84.68;100250.50;1708820;84;21171;-74
2020/12/10 01:30:09;;;;;;;100.00;41.35;;;;;;;-0.99;84.68;100244.34;1708896;84;21179;-74
2020/12/10 01:32:36;;;;;;;97.55;43.08;;;;;;;-1.02;84.68;100240.59;1708559;84;22075;-74
2020/12/10 01:35:02;;;;;;;93.47;37.38;;;;;;;-1.05;84.68;100237.70;1708738;82;21207;-74
2020/12/10 01:37:28;;;;;;;91.50;38.38;;;;;;;-1.06;84.70;100236.05;1708765;84;21148;-74
2020/12/10 01:39:55;;;;;;;85.67;34.60;;;;;;;-1.09;84.67;100232.80;1708829;84;21135;-74
2020/12/10 01:42:21;;;;;;;86.60;36.98;;;;;;;-1.10;84.69;100231.11;1710670;82;21171;-74
2020/12/10 01:44:47;;;;;;;93.37;37.83;;;;;;;-1.14;84.70;100222.63;1711380;82;22245;-74
2020/12/10 01:47:14;;;;;;;93.72;39.13;;;;;;;-1.13;84.71;100232.63;1662438;83;21153;-73
2020/12/10 01:49:40;;;;;;;87.15;35.30;;;;;;;-1.14;84.72;100232.25;1703503;84;21163;-73
2020/12/10 01:52:06;;;;;;;93.17;38.55;;;;;;;-1.15;84.72;100235.80;1711944;83;21178;-73
2020/12/10 01:54:33;;;;;;;91.87;37.17;;;;;;;-1.16;84.71;100224.98;1703437;84;21176;-73
2020/12/10 01:56:59;;;;;;;99.30;41.70;;;;;;;-1.16;84.74;100213.21;1711989;83;21404;-73
2020/12/10 01:59:25;;;;;;;89.90;35.48;;;;;;;-1.19;84.74;100221.23;1679417;83;21178;-73
2020/12/10 02:01:52;;;;;;;100.02;37.40;;;;;;;-1.21;84.75;100223.97;1711709;83;21659;-73
2020/12/10 02:04:34;;;;;;;96.42;39.00;;;;;;;-1.23;84.75;100212.74;1703780;84;21132;-72
2020/12/10 02:07:00;;;;;;;102.35;38.83;;;;;;;-1.25;84.77;100209.41;1711631;83;21626;-73
2020/12/10 02:09:27;;;;;;;97.22;35.80;;;;;;;-1.27;84.76;100207.83;1703868;84;21442;-73
2020/12/10 02:11:54;;;;;;;90.80;36.77;;;;;;;-1.24;84.79;100211.55;1711743;83;21162;-73
2020/12/10 02:14:21;;;;;;;84.83;33.55;;;;;;;-1.24;84.78;100207.16;1703820;84;21618;-73
2020/12/10 02:16:53;;;;;;;88.92;36.25;;;;;;;-1.25;84.79;100205.94;1711752;83;21709;-73
2020/12/10 02:19:19;;;;;;;99.85;41.68;;;;;;;-1.29;84.80;100197.92;1703721;83;21127;-73
2020/12/10 02:21:46;;;;;;;88.97;36.15;;;;;;;-1.32;84.83;100195.05;1711915;82;21111;-73
2020/12/10 02:24:15;;;;;;;97.35;40.35;;;;;;;-1.34;84.82;100195.63;1703598;84;21223;-73
2020/12/10 02:26:41;;;;;;;87.40;36.13;;;;;;;-1.34;84.83;100186.94;1711879;83;21174;-73
2020/12/10 02:29:08;;;;;;;97.27;38.85;;;;;;;-1.35;84.87;100183.48;1703630;83;21160;-73
2020/12/10 02:31:34;;;;;;;94.92;38.33;;;;;;;-1.34;84.86;100181.25;1711705;83;21192;-73
2020/12/10 02:34:02;;;;;;;88.37;36.70;;;;;;;-1.35;84.87;100178.72;1703734;83;22109;-73
2020/12/10 02:36:29;;;;;;;79.62;33.90;;;;;;;-1.40;84.89;100175.55;1711630;83;21130;-73
2020/12/10 02:38:55;;;;;;;83.37;36.10;;;;;;;-1.39;84.89;100169.39;1703733;84;21171;-73
2020/12/10 02:41:21;;;;;;;72.22;31.33;;;;;;;-1.40;84.91;100172.94;1714710;82;21207;-73
2020/12/10 02:43:47;;;;;;;82.15;33.85;;;;;;;-1.39;84.94;100164.16;1701831;83;21096;-73
2020/12/10 02:46:14;;;;;;;88.58;32.03;;;;;;;-1.43;84.94;100169.22;1732369;82;22403;-73
2020/12/10 02:48:40;;;;;;;82.70;33.98;;;;;;;-1.47;84.97;100171.66;1701650;83;21662;-73
2020/12/10 02:51:06;;;;;;;78.95;31.37;;;;;;;-1.51;84.96;100161.40;1732432;82;21143;-73
2020/12/10 02:53:34;;;;;;;81.50;31.45;;;;;;;-1.49;84.98;100164.39;1701555;84;21203;-73
2020/12/10 02:56:01;;;;;;;95.12;38.10;;;;;;;-1.48;84.99;100164.77;1732373;82;21139;-73
2020/12/10 02:58:27;;;;;;;101.20;40.35;;;;;;;-1.48;85.01;100167.39;1701703;83;21201;-73
2020/12/10 03:00:53;;;;;;;100.87;42.25;;;;;;;-1.51;85.01;100161.40;1732401;82;21166;-72
2020/12/10 03:03:19;;;;;;;90.22;34.27;;;;;;;-1.49;85.04;100160.01;1701527;83;21199;-73
2020/12/10 03:05:46;;;;;;;82.82;34.58;;;;;;;-1.45;85.04;100154.11;1732631;82;21128;-73
2020/12/10 03:08:12;;;;;;;96.80;36.70;;;;;;;-1.45;85.06;100148.87;1701497;83;21180;-73
2020/12/10 03:10:38;;;;;;;85.90;35.95;;;;;;;-1.42;85.05;100157.36;1732502;82;21128;-74
2020/12/10 03:13:05;;;;;;;99.67;40.88;;;;;;;-1.42;85.07;100155.21;1701542;83;21151;-74
2020/12/10 03:15:32;;;;;;;103.15;38.30;;;;;;;-1.45;85.08;100152.80;1732124;82;21211;-73
2020/12/10 03:17:59;;;;;;;91.53;34.83;;;;;;;-1.52;85.09;100144.06;1701715;83;21091;-73
2020/12/10 03:20:26;;;;;;;99.83;40.95;;;;;;;-1.52;85.11;100152.37;1732183;82;21112;-73
2020/12/10 03:22:52;;;;;;;100.40;40.55;;;;;;;-1.53;85.12;100152.83;1701563;83;21208;-73
2020/12/10 03:25:18;;;;;;;96.32;37.88;;;;;;;-1.53;85.15;100147.60;1732099;82;21131;-73
2020/12/10 03:27:46;;;;;;;94.70;36.53;;;;;;;-1.51;85.13;100143.09;1701708;83;21172;-73
2020/12/10 03:30:12;;;;;;;95.05;39.10;;;;;;;-1.51;85.17;100140.48;1732264;82;21147;-73
2020/12/10 03:32:39;;;;;;;90.32;36.83;;;;;;;-1.54;85.14;100135.45;1701642;83;21172;-74
2020/12/10 03:35:05;;;;;;;93.80;36.88;;;;;;;-1.53;85.17;100137.14;1732475;82;22105;-73
2020/12/10 03:37:32;;;;;;;101.22;41.55;;;;;;;-1.51;85.19;100148.33;1701337;83;21178;-73
2020/12/10 03:39:58;;;;;;;104.65;40.48;;;;;;;-1.48;85.20;100133.39;1732557;82;21175;-73
2020/12/10 03:42:24;;;;;;;102.40;37.28;;;;;;;-1.47;85.23;100138.97;1701326;83;21141;-73
2020/12/10 03:44:50;;;;;;;102.80;37.40;;;;;;;-1.46;85.24;100131.04;1732414;82;21613;-73
2020/12/10 03:47:17;;;;;;;89.87;34.67;;;;;;;-1.44;85.24;100136.18;1701436;83;21198;-73
2020/12/10 03:49:43;;;;;;;93.90;34.65;;;;;;;-1.47;85.26;100137.66;1732315;82;21196;-73
2020/12/10 03:52:09;;;;;;;91.00;34.03;;;;;;;-1.47;85.28;100135.05;1701628;83;21255;-73
2020/12/10 03:54:35;;;;;;;83.33;31.15;;;;;;;-1.49;85.28;100130.41;1732455;82;21121;-73
2020/12/10 03:57:02;;;;;;;102.55;37.80;;;;;;;-1.47;85.29;100132.44;1701689;83;21569;-73
2020/12/10 03:59:28;;;;;;;103.87;39.98;;;;;;;-1.44;85.31;100137.49;1732151;82;21199;-73
2020/12/10 04:01:55;;;;;;;93.55;36.73;;;;;;;-1.43;85.35;100134.76;1701496;84;21211;-73
2020/12/10 04:04:22;;;;;;;92.02;35.90;;;;;;;-1.44;85.35;100129.64;1732399;82;21150;-73
2020/12/10 04:06:48;;;;;;;98.80;37.93;;;;;;;-1.45;85.36;100128.80;1701578;83;21187;-73
2020/12/10 04:09:14;;;;;;;91.32;36.58;;;;;;;-1.45;85.36;100126.66;1732370;82;21146;-73
2020/12/10 04:11:42;;;;;;;89.03;33.83;;;;;;;-1.45;85.38;100122.27;1701557;83;21209;-74
2020/12/10 04:14:08;;;;;;;87.72;32.73;;;;;;;-1.43;85.40;100126.07;1732366;82;21119;-73
2020/12/10 04:16:34;;;;;;;90.60;36.20;;;;;;;-1.43;85.42;100122.15;1701485;83;21152;-73
2020/12/10 04:19:00;;;;;;;94.58;34.58;;;;;;;-1.43;85.41;100127.38;1732516;82;21183;-74
2020/12/10 04:21:27;;;;;;;90.42;34.63;;;;;;;-1.46;85.42;100123.66;1701002;84;21184;-73
2020/12/10 04:23:53;;;;;;;93.05;33.78;;;;;;;-1.49;85.44;100119.94;1732222;82;21267;-73
2020/12/10 04:26:20;;;;;;;80.72;31.73;;;;;;;-1.51;85.45;100120.88;1701378;83;21195;-73
2020/12/10 04:28:46;;;;;;;94.30;33.83;;;;;;;-1.49;85.45;100122.56;1732460;82;21564;-74
2020/12/10 04:31:12;;;;;;;95.53;36.38;;;;;;;-1.51;85.48;100124.80;1701489;84;21183;-74
2020/12/10 04:33:39;;;;;;;85.70;32.53;;;;;;;-1.49;85.48;100118.64;1732426;82;21175;-73
2020/12/10 04:36:05;;;;;;;85.72;33.98;;;;;;;-1.48;85.49;100121.63;1701804;84;22098;-74
2020/12/10 04:38:32;;;;;;;74.82;28.90;;;;;;;-1.49;85.49;100126.48;1732224;82;21139;-74
2020/12/10 04:41:02;;;;;;;75.78;29.48;;;;;;;-1.54;85.53;100128.92;1701539;84;21152;-73
2020/12/10 04:43:28;;;;;;;77.97;32.78;;;;;;;-1.57;85.50;100123.90;1708326;82;21143;-73
2020/12/10 04:46:04;;;;;;;78.97;30.00;;;;;;;-1.61;85.54;100122.42;1681763;85;21195;-74
2020/12/10 04:48:34;;;;;;;75.62;29.75;;;;;;;-1.61;85.54;100121.11;1699552;83;21269;-74
2020/12/10 04:51:03;;;;;;;;;;;;;;;-1.60;85.55;100118.87;1684389;84;21208;-74
2020/12/10 04:53:30;;;;;;;78.02;32.90;;;;;;;-1.60;85.56;100118.87;1682129;84;20316;-74
2020/12/10 04:55:58;;;;;;;79.75;25.92;;;;;;;-1.64;85.56;100121.31;1699536;83;21140;-74
2020/12/10 04:58:24;;;;;;;77.82;30.85;;;;;;;-1.64;85.59;100115.24;1681866;84;21171;-74
2020/12/10 05:01:01;;;;;;;73.07;28.92;;;;;;;-1.66;85.60;100119.28;1699194;83;21171;-74
2020/12/10 05:03:29;;;;;;;76.10;27.37;;;;;;;-1.68;85.61;100119.83;1681783;84;21159;-74
2020/12/10 05:06:09;;;;;;;70.83;29.63;;;;;;;-1.69;85.62;100121.26;1699553;83;21595;-74
2020/12/10 05:08:36;;;;;;;77.17;31.23;;;;;;;-1.70;85.64;100123.03;1681800;84;21135;-74
2020/12/10 05:11:02;;;;;;;86.47;33.78;;;;;;;-1.71;85.63;100109.58;1699582;84;21124;-74
2020/12/10 05:13:28;;;;;;;84.05;32.78;;;;;;;-1.70;85.66;100109.96;1681756;85;21207;-74
2020/12/10 05:15:55;;;;;;;77.80;28.42;;;;;;;-1.70;85.66;100113.88;1699625;84;21156;-74
2020/12/10 05:18:21;;;;;;;63.23;26.62;;;;;;;-1.70;85.68;100116.49;1681883;84;21588;-74
2020/12/10 05:20:58;;;;;;;76.80;28.10;;;;;;;-1.73;85.69;100119.31;1699606;84;21136;-74
2020/12/10 05:23:37;;;;;;;77.32;29.52;;;;;;;-1.73;85.71;100115.86;1682070;84;21131;-74
2020/12/10 05:26:04;;;;;;;70.28;29.55;;;;;;;-1.75;85.72;100110.71;1699326;83;22099;-74
2020/12/10 05:28:47;;;;;;;76.62;29.90;;;;;;;-1.73;85.72;100114.55;1681864;84;21198;-75
2020/12/10 05:31:18;;;;;;;67.50;28.92;;;;;;;-1.73;85.72;100106.24;1699329;84;21187;-73
2020/12/10 05:33:55;;;;;;;70.92;26.23;;;;;;;-1.73;85.75;100106.24;1681845;84;21290;-74
2020/12/10 05:36:22;;;;;;;71.22;28.90;;;;;;;-1.71;85.75;100116.11;1699682;83;21623;-74
2020/12/10 05:39:05;;;;;;;73.37;25.97;;;;;;;-1.70;85.75;100109.12;1681858;85;21924;-73
2020/12/10 05:41:33;;;;;;;75.65;26.77;;;;;;;-1.69;85.78;100115.53;1699467;84;21230;-74
2020/12/10 05:44:20;;;;;;;66.80;26.05;;;;;;;-1.69;85.78;100108.19;1705660;82;21190;-74
2020/12/10 05:46:53;;;;;;;65.37;24.50;;;;;;;-1.74;85.75;100107.17;1711583;83;21140;-74
2020/12/10 05:49:20;;;;;;;67.60;27.17;;;;;;;-1.77;85.76;100112.60;1706120;83;21163;-74
2020/12/10 05:51:48;;;;;;;81.55;31.93;;;;;;;-1.78;85.77;100097.84;1708770;82;21200;-74
2020/12/10 05:54:16;;;;;;;76.45;27.90;;;;;;;-1.78;85.77;100110.08;1708976;83;21147;-74
2020/12/10 05:56:57;;;;;;;85.40;32.20;;;;;;;-1.80;85.77;100108.88;1708639;83;21195;-74
2020/12/10 05:59:23;;;;;;;72.70;28.23;;;;;;;-1.79;85.79;100100.55;1707875;83;21183;-74
2020/12/10 06:01:50;;;;;;;92.12;35.92;;;;;;;-1.79;85.79;100098.78;1708657;83;21194;-74
2020/12/10 06:04:16;;;;;;;76.40;30.43;;;;;;;-1.77;85.78;100108.67;1708804;83;21159;-74
2020/12/10 06:06:42;;;;;;;86.95;33.75;;;;;;;-1.72;85.80;100107.05;1708889;83;21157;-74
2020/12/10 06:09:10;;;;;;;74.42;26.27;;;;;;;-1.71;85.80;100114.80;1708637;84;21164;-74
2020/12/10 06:11:38;;;;;;;92.35;33.70;;;;;;;-1.70;85.79;100113.88;1708898;83;21105;-74
2020/12/10 06:14:06;;;;;;;79.95;31.07;;;;;;;-1.70;85.81;100106.03;1708454;84;21115;-74
2020/12/10 06:16:33;;;;;;;80.50;30.00;;;;;;;-1.70;85.81;100107.34;1708691;84;21211;-73
2020/12/10 06:19:07;;;;;;;91.00;33.67;;;;;;;-1.70;85.84;100116.49;1708754;84;21207;-74
2020/12/10 06:21:43;;;;;;;88.87;35.13;;;;;;;-1.71;85.86;100107.43;1710274;82;21223;-73
2020/12/10 06:24:30;;;;;;;76.28;30.05;;;;;;;-1.71;85.84;100108.27;1721313;82;21170;-74
2020/12/10 06:26:56;;;;;;;88.70;32.78;;;;;;;-1.68;85.88;100109.38;1721942;82;21113;-74
2020/12/10 06:29:33;;;;;;;79.60;29.55;;;;;;;-1.69;85.86;100107.69;1730969;82;21222;-74
2020/12/10 06:32:15;;;;;;;89.05;35.30;;;;;;;-1.67;85.86;100106.30;1725156;82;21242;-74
2020/12/10 06:34:48;;;;;;;80.12;30.32;;;;;;;-1.67;85.87;100108.45;1708752;82;21187;-74
2020/12/10 06:37:21;;;;;;;93.75;33.10;;;;;;;-1.66;85.88;100104.91;1732324;81;21127;-74
2020/12/10 06:39:50;;;;;;;65.05;27.98;;;;;;;-1.66;85.88;100102.30;1723737;82;21125;-74
2020/12/10 06:42:16;;;;;;;57.38;23.18;;;;;;;-1.67;85.88;100100.61;1737940;82;22074;-74
2020/12/10 06:44:43;;;;;;;86.02;32.65;;;;;;;-1.73;85.89;100103.62;1737074;82;21167;-74
2020/12/10 06:47:09;;;;;;;76.07;29.32;;;;;;;-1.76;85.89;100103.80;1720878;82;21226;-74
2020/12/10 06:49:36;;;;;;;134.82;64.30;;;;;;;-1.79;85.92;100106.61;1722833;82;21134;-74
2020/12/10 06:52:18;;;;;;;131.03;54.48;;;;;;;-1.83;85.90;100103.83;1713726;81;21144;-74
2020/12/10 06:55:10;;;;;;;126.67;54.90;;;;;;;-1.83;85.92;100099.91;1735681;82;22221;-74
2020/12/10 07:00:43;;;;;;;103.78;37.17;;;;;;;-1.78;85.94;100090.01;1815774;77;28474;-74
2020/12/10 07:03:16;;;;;;;;;;;;;;;-1.83;85.94;100086.84;1790838;80;21032;-73
2020/12/10 07:05:42;;;;;;;83.50;31.42;;;;;;;-1.85;85.96;100088.73;1787984;79;22012;-73
2020/12/10 07:08:09;;;;;;;105.37;39.18;;;;;;;-1.88;85.96;100090.23;1788067;79;21670;-73
2020/12/10 07:10:43;;;;;;;99.72;41.42;;;;;;;-1.89;85.96;100092.47;1788184;79;21564;-73
2020/12/10 07:13:10;;;;;;;114.08;51.00;;;;;;;-1.89;85.97;100087.25;1787572;79;21155;-74
2020/12/10 07:15:36;;;;;;;86.22;32.35;;;;;;;-1.88;85.97;100092.01;1758821;80;21123;-73
2020/12/10 07:18:04;;;;;;;79.87;33.25;;;;;;;-1.89;85.98;100096.39;1757102;81;21251;-73
2020/12/10 07:20:32;;;;;;;74.90;27.40;;;;;;;-1.90;86.01;100093.40;1756862;81;21041;-73
2020/12/10 07:23:00;;;;;;;79.58;29.98;;;;;;;-1.91;86.01;100092.20;1756753;81;21599;-73
2020/12/10 07:25:26;;;;;;;84.35;30.10;;;;;;;-1.93;85.99;100094.06;1757085;81;21618;-73
2020/12/10 07:27:53;;;;;;;73.07;29.85;;;;;;;-1.94;86.00;100089.34;1756698;81;21166;-73
2020/12/10 07:30:20;;;;;;;68.52;25.43;;;;;;;-1.95;85.99;100092.88;1727557;81;21198;-73
2020/12/10 07:32:46;;;;;;;75.45;30.80;;;;;;;-1.94;86.02;100081.50;1755970;80;21154;-73
2020/12/10 07:35:13;;;;;;;73.37;27.85;;;;;;;-1.91;86.01;100087.83;1753011;81;21548;-73
2020/12/10 07:37:40;;;;;;;73.60;28.60;;;;;;;-1.87;86.03;100082.78;1738204;81;21171;-73
2020/12/10 07:40:14;;;;;;;76.55;29.52;;;;;;;-1.83;86.04;100075.08;1771357;80;21136;-73
2020/12/10 07:42:40;;;;;;;75.85;28.38;;;;;;;-1.85;86.06;100070.44;1772653;80;21203;-72
2020/12/10 07:45:18;;;;;;;77.30;31.23;;;;;;;-1.87;86.04;100073.63;1767797;80;21521;-73
2020/12/10 07:47:56;;;;;;;76.07;26.80;;;;;;;-1.88;86.05;100075.86;1752432;81;21552;-73
2020/12/10 07:50:25;;;;;;;64.87;23.70;;;;;;;-1.87;86.06;100065.80;1740994;81;21130;-73
2020/12/10 07:52:55;;;;;;;90.45;34.38;;;;;;;-1.87;86.07;100067.10;1750584;80;21592;-73
2020/12/10 07:55:26;;;;;;;80.67;27.50;;;;;;;-1.88;86.08;100068.03;1754467;80;21241;-74
2020/12/10 07:57:57;;;;;;;76.05;27.77;;;;;;;-1.87;86.09;100068.88;1740431;80;21154;-73
2020/12/10 08:00:26;;;;;;;74.67;28.65;;;;;;;-1.88;86.10;100068.03;1707442;81;21148;-73
2020/12/10 08:03:07;;;;;;;107.85;36.48;;;;;;;-1.88;86.10;100068.03;1705398;82;21136;-73
2020/12/10 08:05:33;;;;;;;71.70;28.75;;;;;;;-1.91;86.13;100052.55;1711454;81;21605;-74
2020/12/10 08:08:00;;;;;;;85.75;34.18;;;;;;;-1.92;86.13;100052.17;1713207;81;21268;-74
2020/12/10 08:10:28;;;;;;;71.33;29.25;;;;;;;-1.89;86.13;100055.89;1707821;81;21244;-73
2020/12/10 08:13:11;;;;;;;73.67;29.63;;;;;;;-1.88;86.13;100056.27;1709880;81;21208;-73
2020/12/10 08:15:48;;;;;;;154.72;49.77;;;;;;;-1.90;86.14;100052.90;1707339;81;21726;-74
2020/12/10 08:18:18;;;;;;;146.15;47.15;;;;;;;-1.91;86.14;100047.33;1704556;81;21151;-73
2020/12/10 08:20:52;;;;;;;87.45;27.50;;;;;;;-1.89;86.14;100049.36;1706199;81;21931;-73
2020/12/10 08:23:19;;;;;;;136.43;40.67;;;;;;;-1.88;86.16;100047.13;1715394;81;21766;-73
2020/12/10 08:25:48;;;;;;;108.65;43.17;;;;;;;-1.88;86.17;100047.13;1715082;81;21647;-73
2020/12/10 08:28:14;;;;;;;340.32;158.42;;;;;;;-1.88;86.16;100043.67;1675070;83;21189;-73
2020/12/10 08:30:53;;;;;;;291.70;129.20;;;;;;;-1.84;86.18;100045.99;1710551;81;21259;-73
2020/12/10 08:33:19;;;;;;;255.07;114.22;;;;;;;-1.83;86.19;100042.41;1707763;81;21984;-73
2020/12/10 08:35:46;;;;;;;282.98;125.25;;;;;;;-1.81;86.17;100049.70;1704635;81;21199;-73
2020/12/10 08:38:13;;;;;;;118.00;46.45;;;;;;;-1.79;86.19;100041.28;1711366;81;21218;-73
2020/12/10 08:40:39;;;;;;;78.62;31.82;;;;;;;-1.73;86.21;100051.36;1704421;81;21231;-73
2020/12/10 08:43:13;;;;;;;85.10;33.98;;;;;;;-1.72;86.22;100047.78;1707817;81;21194;-73
2020/12/10 08:45:44;;;;;;;74.27;30.97;;;;;;;-1.71;86.21;100050.77;1684517;83;22252;-73
2020/12/10 08:48:15;;;;;;;81.22;34.60;;;;;;;-1.72;86.22;100050.86;1685096;83;21774;-73
2020/12/10 08:50:56;;;;;;;70.85;26.77;;;;;;;-1.70;86.21;100052.92;1709002;81;21228;-73
2020/12/10 08:53:23;;;;;;;58.02;26.65;;;;;;;-1.72;86.22;100042.55;1709938;81;21628;-73
2020/12/10 08:55:53;;;;;;;58.48;25.08;;;;;;;-1.73;86.23;100046.12;1684931;83;21251;-73
2020/12/10 08:58:28;;;;;;;67.67;26.10;;;;;;;-1.75;86.21;100038.00;1682332;83;21323;-73
2020/12/10 09:00:56;;;;;;;64.67;25.40;;;;;;;-1.76;86.22;100033.23;1679976;83;21220;-73
2020/12/10 09:03:23;;;;;;;58.87;25.23;;;;;;;-1.76;86.21;100041.08;1708256;81;21156;-73
2020/12/10 09:05:50;;;;;;;64.37;25.20;;;;;;;-1.76;86.20;100034.55;1679939;83;21223;-73
2020/12/10 09:08:17;;;;;;;75.52;28.10;;;;;;;-1.74;86.21;100039.22;1681950;83;21228;-73
2020/12/10 09:10:43;;;;;;;69.97;28.50;;;;;;;-1.71;86.21;100039.01;1708526;81;22082;-73
2020/12/10 09:13:09;;;;;;;78.97;39.73;;;;;;;-1.70;86.19;100035.94;1683550;83;21244;-73
2020/12/10 09:15:37;;;;;;;66.45;29.63;;;;;;;-1.69;86.22;100040.23;1683798;83;21608;-72
2020/12/10 09:18:03;;;;;;;75.67;30.30;;;;;;;-1.66;86.20;100036.95;1677484;84;21928;-73
2020/12/10 09:20:30;;;;;;;76.20;29.10;;;;;;;-1.67;86.20;100033.11;1679568;84;21196;-73
2020/12/10 09:22:56;;;;;;;68.15;25.80;;;;;;;-1.66;86.20;100032.18;1679507;83;21202;-73
2020/12/10 09:25:23;;;;;;;76.00;29.00;;;;;;;-1.67;86.22;100030.03;1675946;83;21167;-73
2020/12/10 09:27:49;;;;;;;61.05;24.27;;;;;;;-1.68;86.21;100027.51;1694839;82;21200;-73
2020/12/10 09:30:16;;;;;;;81.10;33.98;;;;;;;-1.68;86.20;100027.04;1708503;81;21644;-74
2020/12/10 09:32:42;;;;;;;101.10;38.10;;;;;;;-1.67;86.20;100013.51;1683965;83;21188;-74
2020/12/10 09:35:10;;;;;;;126.07;37.15;;;;;;;-1.66;86.20;100009.96;1685430;83;22671;-73
2020/12/10 09:37:38;;;;;;;86.50;32.67;;;;;;;-1.64;86.18;100018.52;1686691;83;21232;-73
2020/12/10 09:40:06;;;;;;;85.03;32.25;;;;;;;-1.63;86.21;100010.59;1681986;83;21200;-73
2020/12/10 09:42:41;;;;;;;118.82;39.63;;;;;;;-1.64;86.18;100012.83;1691539;82;21653;-74
2020/12/10 09:45:11;;;;;;;87.50;32.60;;;;;;;-1.60;86.20;100008.23;1693259;82;21208;-73
2020/12/10 09:47:37;;;;;;;90.72;32.63;;;;;;;-1.55;86.19;100007.47;1692741;82;22725;-73
2020/12/10 09:50:06;;;;;;;64.50;26.77;;;;;;;-1.53;86.22;100001.19;1693587;82;21176;-73
2020/12/10 09:52:35;;;;;;;68.15;27.05;;;;;;;-1.52;86.20;100002.87;1692858;82;21199;-73
2020/12/10 09:57:41;;;;;;;61.18;26.37;;;;;;;-1.51;86.19;99995.38;1797094;77;28546;-73
2020/12/10 10:00:07;;;;;;;56.13;23.52;;;;;;;-1.58;86.20;99989.35;1776838;78;21223;-73
2020/12/10 10:02:34;;;;;;;61.70;26.37;;;;;;;-1.57;86.19;99987.11;1776460;79;22187;-73
2020/12/10 10:05:00;;;;;;;67.30;28.17;;;;;;;-1.57;86.19;99976.66;1777520;78;21672;-73
2020/12/10 10:07:27;;;;;;;73.35;31.27;;;;;;;-1.58;86.18;99980.20;1773204;78;21129;-73
2020/12/10 10:09:53;;;;;;;72.70;28.40;;;;;;;-1.60;86.18;99977.70;1775515;78;21211;-73
2020/12/10 10:12:19;;;;;;;79.27;30.75;;;;;;;-1.60;86.20;99977.70;1776137;78;21139;-73
2020/12/10 10:14:46;;;;;;;74.20;30.70;;;;;;;-1.61;86.17;99974.72;1774043;78;21810;-73
2020/12/10 10:17:12;;;;;;;75.00;30.77;;;;;;;-1.60;86.18;99972.48;1775382;78;21196;-73
2020/12/10 10:19:38;;;;;;;71.95;29.92;;;;;;;-1.58;86.17;99969.28;1774803;78;21419;-73
2020/12/10 10:22:05;;;;;;;71.05;29.45;;;;;;;-1.57;86.16;99974.88;1775263;78;21172;-74
2020/12/10 10:24:32;;;;;;;67.27;29.37;;;;;;;-1.57;86.15;99972.73;1764835;78;21592;-73
2020/12/10 10:26:59;;;;;;;67.65;25.82;;;;;;;-1.56;86.15;99983.10;1759225;79;21177;-74
2020/12/10 10:29:25;;;;;;;66.28;26.30;;;;;;;-1.57;86.15;99969.66;1761070;79;21163;-74
2020/12/10 10:31:52;;;;;;;86.70;29.67;;;;;;;-1.56;86.16;99965.27;1759477;79;22059;-73
2020/12/10 10:34:18;;;;;;;107.03;40.40;;;;;;;-1.55;86.15;99956.00;1760002;79;21719;-73
2020/12/10 10:36:45;;;;;;;392.82;171.98;;;;;;;-1.53;86.13;99959.36;1764102;79;21223;-73
2020/12/10 10:39:11;;;;;;;723.08;373.30;;;;;;;-1.47;86.12;99958.56;1758398;79;21254;-73
2020/12/10 10:41:43;;;;;;;294.30;124.25;;;;;;;-1.45;86.12;99960.61;1760863;79;21174;-73
2020/12/10 10:44:09;;;;;;;260.32;107.12;;;;;;;-1.42;86.13;99957.79;1745468;80;21203;-73
2020/12/10 10:46:35;;;;;;;104.85;43.75;;;;;;;-1.42;86.12;99955.17;1718554;81;21219;-73
2020/12/10 10:49:02;;;;;;;78.90;32.08;;;;;;;-1.39;86.14;99958.41;1746247;80;21200;-72
2020/12/10 10:51:29;;;;;;;210.43;80.95;;;;;;;-1.40;86.13;99953.27;1711934;81;21214;-73
2020/12/10 10:53:55;;;;;;;256.20;95.25;;;;;;;-1.43;86.10;99956.11;1761118;79;21141;-74
2020/12/10 10:56:22;;;;;;;145.85;60.60;;;;;;;-1.48;86.13;99945.14;1760564;79;21129;-73
2020/12/10 10:58:49;;;;;;;122.30;47.05;;;;;;;-1.55;86.11;99951.27;1761602;80;21175;-71
2020/12/10 11:01:15;;;;;;;209.35;81.75;;;;;;;-1.59;86.11;99944.10;1726111;81;21256;-70
2020/12/10 11:03:42;;;;;;;169.15;68.97;;;;;;;-1.60;86.11;99946.81;1728780;81;21258;-71
2020/12/10 11:06:11;;;;;;;67.80;27.55;;;;;;;-1.59;86.08;99938.88;1718344;82;21260;-71
2020/12/10 11:08:37;;;;;;;151.97;65.10;;;;;;;-1.57;86.06;99931.75;1692959;83;21720;-72
2020/12/10 11:11:04;;;;;;;144.37;64.87;;;;;;;-1.59;86.08;99937.56;1711579;82;21185;-71
2020/12/10 11:13:30;;;;;;;87.22;34.23;;;;;;;-1.60;86.06;99931.13;1710088;82;21612;-72
2020/12/10 11:15:56;;;;;;;85.62;42.48;;;;;;;-1.58;86.06;99934.45;1706323;82;21796;-72
2020/12/10 11:18:22;;;;;;;102.15;43.20;;;;;;;-1.56;86.04;99932.13;1705088;82;21203;-71
2020/12/10 11:20:49;;;;;;;101.38;45.90;;;;;;;-1.59;86.04;99933.64;1704262;82;21184;-72